createdAt,value
2017-04-30T00:00:09.567Z,1015.61
2017-04-30T00:01:18.776Z,1015.62
2017-04-30T00:02:27.816Z,1015.64
2017-04-30T00:03:36.856Z,1015.64
2017-04-30T00:04:45.816Z,1015.65
2017-04-30T00:05:54.863Z,1015.61
2017-04-30T00:07:04.121Z,1015.68
2017-04-30T00:08:13.072Z,1015.65
2017-04-30T00:09:22.033Z,1015.63
2017-04-30T00:10:30.987Z,1015.64
2017-04-30T00:11:39.943Z,1015.59
2017-04-30T00:12:49.152Z,1015.59
2017-04-30T00:13:58.107Z,1015.63
2017-04-30T00:15:07.123Z,1015.62
2017-04-30T00:16:16.081Z,1015.65
2017-04-30T00:17:25.122Z,1015.63
2017-04-30T00:18:34.435Z,1015.63
2017-04-30T00:19:43.390Z,1015.66
2017-04-30T00:20:52.346Z,1015.63
2017-04-30T00:22:01.303Z,1015.65
2017-04-30T00:23:10.252Z,1015.66
2017-04-30T00:24:19.451Z,1015.66
2017-04-30T00:25:28.419Z,1015.66
2017-04-30T00:26:37.368Z,1015.71
2017-04-30T00:27:46.410Z,1015.71
2017-04-30T00:28:55.366Z,1015.7
2017-04-30T00:30:04.578Z,1015.71
2017-04-30T00:31:13.527Z,1015.68
2017-04-30T00:32:22.560Z,1015.67
2017-04-30T00:33:31.838Z,1015.65
2017-04-30T00:34:40.786Z,1015.71
2017-04-30T00:35:49.988Z,1015.66
2017-04-30T00:36:58.937Z,1015.67
2017-04-30T00:38:07.893Z,1015.67
2017-04-30T00:39:16.846Z,1015.73
2017-04-30T00:40:25.799Z,1015.72
2017-04-30T00:41:35.001Z,1015.71
2017-04-30T00:42:43.952Z,1015.76
2017-04-30T00:43:52.909Z,1015.79
2017-04-30T00:45:01.865Z,1015.75
2017-04-30T00:46:10.817Z,1015.75
2017-04-30T00:47:20.025Z,1015.76
2017-04-30T00:48:28.985Z,1015.79
2017-04-30T00:49:37.938Z,1015.77
2017-04-30T00:50:46.890Z,1015.77
2017-04-30T00:51:55.930Z,1015.78
2017-04-30T00:53:05.131Z,1015.78
2017-04-30T00:54:14.085Z,1015.82
2017-04-30T00:55:23.040Z,1015.85
2017-04-30T00:56:32.001Z,1015.85
2017-04-30T00:57:40.946Z,1015.85
2017-04-30T00:58:50.153Z,1015.84
2017-04-30T00:59:59.140Z,1015.81
2017-04-30T01:01:08.092Z,1015.79
2017-04-30T01:02:17.041Z,1015.81
2017-04-30T01:03:26.000Z,1015.82
2017-04-30T01:04:35.207Z,1015.83
2017-04-30T01:05:44.162Z,1015.81
2017-04-30T01:06:53.118Z,1015.87
2017-04-30T01:08:02.072Z,1015.84
2017-04-30T01:09:11.353Z,1015.88
2017-04-30T01:10:20.559Z,1015.87
2017-04-30T01:11:29.506Z,1015.83
2017-04-30T01:12:38.460Z,1015.86
2017-04-30T01:13:47.740Z,1015.85
2017-04-30T01:14:56.691Z,1015.86
2017-04-30T01:16:05.944Z,1015.84
2017-04-30T01:17:14.986Z,1015.87
2017-04-30T01:18:23.937Z,1015.81
2017-04-30T01:19:32.889Z,1015.87
2017-04-30T01:20:41.835Z,1015.87
2017-04-30T01:21:51.122Z,1015.9
2017-04-30T01:23:00.074Z,1015.91
2017-04-30T01:24:09.024Z,1015.94
2017-04-30T01:25:17.979Z,1015.94
2017-04-30T01:26:26.934Z,1015.98
2017-04-30T01:27:36.311Z,1015.99
2017-04-30T01:28:45.264Z,1015.99
2017-04-30T01:29:54.218Z,1016.03
2017-04-30T01:31:03.173Z,1016.05
2017-04-30T01:32:12.447Z,1016.07
2017-04-30T01:33:21.696Z,1016.13
2017-04-30T01:34:30.655Z,1016.12
2017-04-30T01:35:39.604Z,1016.16
2017-04-30T01:36:48.552Z,1016.12
2017-04-30T01:37:57.499Z,1016.16
2017-04-30T01:39:06.797Z,1016.15
2017-04-30T01:40:15.752Z,1016.18
2017-04-30T01:41:24.789Z,1016.22
2017-04-30T01:42:33.747Z,1016.23
2017-04-30T01:43:42.703Z,1016.25
2017-04-30T01:44:51.908Z,1016.29
2017-04-30T01:46:01.037Z,1016.32
2017-04-30T01:47:09.990Z,1016.39
2017-04-30T01:48:19.022Z,1016.37
2017-04-30T01:49:27.984Z,1016.43
2017-04-30T01:50:37.189Z,1016.4
2017-04-30T01:51:46.139Z,1016.48
2017-04-30T01:52:55.088Z,1016.44
2017-04-30T01:54:04.049Z,1016.45
2017-04-30T01:55:13.002Z,1016.46
2017-04-30T01:56:22.289Z,1016.45
2017-04-30T01:57:31.240Z,1016.46
2017-04-30T01:58:40.205Z,1016.48
2017-04-30T01:59:49.157Z,1016.48
2017-04-30T02:00:58.110Z,1016.47
2017-04-30T02:02:07.401Z,1016.46
2017-04-30T02:03:16.350Z,1016.49
2017-04-30T02:04:25.300Z,1016.52
2017-04-30T02:05:34.247Z,1016.53
2017-04-30T02:06:43.196Z,1016.55
2017-04-30T02:07:52.485Z,1016.56
2017-04-30T02:09:01.436Z,1016.54
2017-04-30T02:10:10.400Z,1016.55
2017-04-30T02:11:20.095Z,1016.6
2017-04-30T02:12:29.049Z,1016.6
2017-04-30T02:13:38.248Z,1016.64
2017-04-30T02:14:47.288Z,1016.61
2017-04-30T02:15:56.249Z,1016.62
2017-04-30T02:17:05.195Z,1016.63
2017-04-30T02:18:14.236Z,1016.63
2017-04-30T02:19:23.489Z,1016.63
2017-04-30T02:20:32.435Z,1016.63
2017-04-30T02:21:41.761Z,1016.6
2017-04-30T02:22:50.710Z,1016.59
2017-04-30T02:23:59.665Z,1016.59
2017-04-30T02:25:08.869Z,1016.59
2017-04-30T02:26:17.816Z,1016.62
2017-04-30T02:27:26.853Z,1016.6
2017-04-30T02:28:35.808Z,1016.58
2017-04-30T02:29:44.764Z,1016.56
2017-04-30T02:30:54.017Z,1016.6
2017-04-30T02:32:02.967Z,1016.62
2017-04-30T02:33:11.918Z,1016.62
2017-04-30T02:34:20.872Z,1016.61
2017-04-30T02:35:29.821Z,1016.56
2017-04-30T02:36:39.110Z,1016.58
2017-04-30T02:37:48.059Z,1016.57
2017-04-30T02:38:57.095Z,1016.55
2017-04-30T02:40:06.045Z,1016.55
2017-04-30T02:41:14.992Z,1016.53
2017-04-30T02:42:24.198Z,1016.59
2017-04-30T02:43:33.235Z,1016.56
2017-04-30T02:44:42.190Z,1016.58
2017-04-30T02:45:51.227Z,1016.59
2017-04-30T02:47:00.177Z,1016.57
2017-04-30T02:48:09.436Z,1016.59
2017-04-30T02:49:18.713Z,1016.61
2017-04-30T02:50:27.753Z,1016.6
2017-04-30T02:51:36.709Z,1016.6
2017-04-30T02:52:45.656Z,1016.68
2017-04-30T02:53:54.871Z,1016.63
2017-04-30T02:55:04.563Z,1016.63
2017-04-30T02:56:13.522Z,1016.67
2017-04-30T02:57:22.477Z,1016.69
2017-04-30T02:58:31.516Z,1016.69
2017-04-30T02:59:40.723Z,1016.71
2017-04-30T03:00:49.679Z,1016.66
2017-04-30T03:01:58.632Z,1016.72
2017-04-30T03:03:07.585Z,1016.7
2017-04-30T03:04:16.543Z,1016.66
2017-04-30T03:05:26.066Z,1016.68
2017-04-30T03:06:35.016Z,1016.67
2017-04-30T03:07:43.970Z,1016.68
2017-04-30T03:08:52.959Z,1016.71
2017-04-30T03:10:01.906Z,1016.71
2017-04-30T03:11:11.164Z,1016.72
2017-04-30T03:12:20.110Z,1016.7
2017-04-30T03:13:29.063Z,1016.71
2017-04-30T03:14:38.106Z,1016.65
2017-04-30T03:15:47.142Z,1016.68
2017-04-30T03:16:56.338Z,1016.68
2017-04-30T03:18:05.286Z,1016.67
2017-04-30T03:19:14.240Z,1016.66
2017-04-30T03:20:23.202Z,1016.67
2017-04-30T03:21:35.512Z,1016.68
2017-04-30T03:22:44.766Z,1016.64
2017-04-30T03:23:53.714Z,1016.69
2017-04-30T03:25:02.761Z,1016.65
2017-04-30T03:26:11.747Z,1016.64
2017-04-30T03:27:20.694Z,1016.65
2017-04-30T03:28:29.906Z,1016.69
2017-04-30T03:29:38.863Z,1016.67
2017-04-30T03:30:47.900Z,1016.69
2017-04-30T03:31:56.848Z,1016.68
2017-04-30T03:33:05.803Z,1016.64
2017-04-30T03:34:15.012Z,1016.69
2017-04-30T03:35:23.964Z,1016.71
2017-04-30T03:36:32.998Z,1016.68
2017-04-30T03:37:41.948Z,1016.74
2017-04-30T03:38:50.957Z,1016.68
2017-04-30T03:40:00.157Z,1016.72
2017-04-30T03:41:09.108Z,1016.71
2017-04-30T03:42:18.060Z,1016.69
2017-04-30T03:43:27.010Z,1016.71
2017-04-30T03:44:36.059Z,1016.68
2017-04-30T03:45:45.313Z,1016.74
2017-04-30T03:46:54.345Z,1016.76
2017-04-30T03:48:03.382Z,1016.76
2017-04-30T03:49:12.652Z,1016.77
2017-04-30T03:50:21.602Z,1016.78
2017-04-30T03:51:30.798Z,1016.8
2017-04-30T03:52:39.754Z,1016.83
2017-04-30T03:53:48.707Z,1016.82
2017-04-30T03:54:57.986Z,1016.83
2017-04-30T03:56:06.965Z,1016.86
2017-04-30T03:57:16.218Z,1016.86
2017-04-30T03:58:25.171Z,1016.89
2017-04-30T03:59:34.127Z,1016.86
2017-04-30T04:00:43.171Z,1016.93
2017-04-30T04:01:52.121Z,1016.91
2017-04-30T04:03:01.322Z,1016.97
2017-04-30T04:04:10.289Z,1016.93
2017-04-30T04:05:19.245Z,1017
2017-04-30T04:06:28.231Z,1016.95
2017-04-30T04:07:37.184Z,1016.98
2017-04-30T04:08:46.441Z,1016.99
2017-04-30T04:09:55.720Z,1016.98
2017-04-30T04:11:04.678Z,1016.96
2017-04-30T04:12:13.630Z,1016.98
2017-04-30T04:13:22.618Z,1016.98
2017-04-30T04:14:31.822Z,1016.98
2017-04-30T04:15:40.773Z,1016.99
2017-04-30T04:16:49.772Z,1017.01
2017-04-30T04:17:58.815Z,1017.04
2017-04-30T04:19:07.771Z,1017.09
2017-04-30T04:20:17.142Z,1017.12
2017-04-30T04:21:26.089Z,1017.06
2017-04-30T04:22:35.032Z,1017.08
2017-04-30T04:23:43.976Z,1017.04
2017-04-30T04:24:52.925Z,1017.07
2017-04-30T04:26:02.128Z,1017.07
2017-04-30T04:27:11.159Z,1017.04
2017-04-30T04:28:20.104Z,1017.09
2017-04-30T04:29:29.056Z,1017.07
2017-04-30T04:30:38.011Z,1017.15
2017-04-30T04:31:47.207Z,1017.19
2017-04-30T04:32:56.158Z,1017.2
2017-04-30T04:34:05.140Z,1017.2
2017-04-30T04:35:14.096Z,1017.16
2017-04-30T04:36:23.041Z,1017.17
2017-04-30T04:37:32.238Z,1017.16
2017-04-30T04:38:41.205Z,1017.25
2017-04-30T04:39:50.160Z,1017.25
2017-04-30T04:40:59.114Z,1017.25
2017-04-30T04:42:08.071Z,1017.2
2017-04-30T04:43:17.274Z,1017.27
2017-04-30T04:44:26.317Z,1017.25
2017-04-30T04:45:35.271Z,1017.23
2017-04-30T04:46:44.228Z,1017.23
2017-04-30T04:47:53.502Z,1017.25
2017-04-30T04:49:02.756Z,1017.24
2017-04-30T04:50:11.716Z,1017.22
2017-04-30T04:51:20.661Z,1017.23
2017-04-30T04:52:29.610Z,1017.26
2017-04-30T04:53:38.567Z,1017.24
2017-04-30T04:54:47.769Z,1017.23
2017-04-30T04:55:56.719Z,1017.23
2017-04-30T04:57:05.671Z,1017.25
2017-04-30T04:58:14.617Z,1017.24
2017-04-30T04:59:23.575Z,1017.25
2017-04-30T05:00:32.775Z,1017.3
2017-04-30T05:01:41.726Z,1017.28
2017-04-30T05:02:50.677Z,1017.32
2017-04-30T05:03:59.729Z,1017.32
2017-04-30T05:05:08.684Z,1017.34
2017-04-30T05:06:18.023Z,1017.32
2017-04-30T05:07:26.977Z,1017.38
2017-04-30T05:08:35.929Z,1017.37
2017-04-30T05:09:44.968Z,1017.37
2017-04-30T05:10:53.927Z,1017.42
2017-04-30T05:12:03.125Z,1017.41
2017-04-30T05:13:12.085Z,1017.41
2017-04-30T05:14:21.037Z,1017.41
2017-04-30T05:15:29.994Z,1017.43
2017-04-30T05:16:38.945Z,1017.4
2017-04-30T05:17:48.179Z,1017.42
2017-04-30T05:18:57.129Z,1017.41
2017-04-30T05:20:06.091Z,1017.41
2017-04-30T05:21:15.040Z,1017.41
2017-04-30T05:22:23.989Z,1017.43
2017-04-30T05:23:33.185Z,1017.46
2017-04-30T05:24:42.137Z,1017.4
2017-04-30T05:25:51.092Z,1017.42
2017-04-30T05:27:00.038Z,1017.37
2017-04-30T05:28:08.988Z,1017.35
2017-04-30T05:29:18.200Z,1017.37
2017-04-30T05:30:27.161Z,1017.44
2017-04-30T05:31:36.114Z,1017.39
2017-04-30T05:32:45.067Z,1017.37
2017-04-30T05:33:54.019Z,1017.39
2017-04-30T05:35:03.217Z,1017.39
2017-04-30T05:36:12.169Z,1017.37
2017-04-30T05:37:21.127Z,1017.45
2017-04-30T05:38:30.080Z,1017.45
2017-04-30T05:39:39.033Z,1017.43
2017-04-30T05:40:48.265Z,1017.47
2017-04-30T05:41:57.545Z,1017.39
2017-04-30T05:43:06.822Z,1017.47
2017-04-30T05:44:15.778Z,1017.44
2017-04-30T05:45:24.817Z,1017.4
2017-04-30T05:46:34.071Z,1017.4
2017-04-30T05:47:43.024Z,1017.42
2017-04-30T05:48:51.974Z,1017.39
2017-04-30T05:50:00.921Z,1017.42
2017-04-30T05:51:09.868Z,1017.42
2017-04-30T05:52:19.069Z,1017.43
2017-04-30T05:53:28.014Z,1017.43
2017-04-30T05:54:36.968Z,1017.49
2017-04-30T05:55:45.917Z,1017.48
2017-04-30T05:56:55.187Z,1017.5
2017-04-30T05:58:04.393Z,1017.46
2017-04-30T05:59:13.344Z,1017.53
2017-04-30T06:00:22.303Z,1017.51
2017-04-30T06:01:31.258Z,1017.5
2017-04-30T06:02:40.244Z,1017.45
2017-04-30T06:03:49.457Z,1017.53
2017-04-30T06:04:58.498Z,1017.49
2017-04-30T06:06:07.537Z,1017.51
2017-04-30T06:07:16.573Z,1017.46
2017-04-30T06:08:25.523Z,1017.51
2017-04-30T06:09:34.778Z,1017.53
2017-04-30T06:10:43.723Z,1017.58
2017-04-30T06:11:52.674Z,1017.47
2017-04-30T06:13:01.708Z,1017.5
2017-04-30T06:14:10.984Z,1017.57
2017-04-30T06:15:20.325Z,1017.59
2017-04-30T06:16:29.279Z,1017.54
2017-04-30T06:17:38.236Z,1017.53
2017-04-30T06:18:47.191Z,1017.49
2017-04-30T06:19:56.143Z,1017.51
2017-04-30T06:21:05.395Z,1017.5
2017-04-30T06:22:14.351Z,1017.53
2017-04-30T06:23:23.305Z,1017.57
2017-04-30T06:24:32.266Z,1017.54
2017-04-30T06:25:41.219Z,1017.52
2017-04-30T06:26:50.507Z,1017.54
2017-04-30T06:27:59.451Z,1017.55
2017-04-30T06:29:08.402Z,1017.52
2017-04-30T06:30:17.360Z,1017.53
2017-04-30T06:31:26.313Z,1017.56
2017-04-30T06:32:35.918Z,1017.52
2017-04-30T06:33:44.878Z,1017.51
2017-04-30T06:34:53.842Z,1017.52
2017-04-30T06:36:02.799Z,1017.5
2017-04-30T06:37:11.752Z,1017.54
2017-04-30T06:38:20.952Z,1017.52
2017-04-30T06:39:29.902Z,1017.45
2017-04-30T06:40:38.853Z,1017.44
2017-04-30T06:41:47.803Z,1017.47
2017-04-30T06:42:56.755Z,1017.43
2017-04-30T06:44:05.962Z,1017.41
2017-04-30T06:45:14.926Z,1017.47
2017-04-30T06:46:23.879Z,1017.42
2017-04-30T06:47:32.841Z,1017.42
2017-04-30T06:48:41.799Z,1017.42
2017-04-30T06:49:51.008Z,1017.46
2017-04-30T06:50:59.963Z,1017.47
2017-04-30T06:52:08.921Z,1017.47
2017-04-30T06:53:17.887Z,1017.45
2017-04-30T06:54:26.851Z,1017.43
2017-04-30T06:55:36.110Z,1017.45
2017-04-30T06:56:45.152Z,1017.5
2017-04-30T06:57:54.098Z,1017.5
2017-04-30T06:59:03.048Z,1017.55
2017-04-30T07:00:12.004Z,1017.54
2017-04-30T07:01:21.256Z,1017.51
2017-04-30T07:02:30.209Z,1017.5
2017-04-30T07:03:39.164Z,1017.54
2017-04-30T07:04:48.121Z,1017.5
2017-04-30T07:05:57.077Z,1017.49
2017-04-30T07:07:06.327Z,1017.51
2017-04-30T07:08:15.281Z,1017.49
2017-04-30T07:09:24.238Z,1017.51
2017-04-30T07:10:33.197Z,1017.46
2017-04-30T07:11:42.144Z,1017.47
2017-04-30T07:12:51.434Z,1017.45
2017-04-30T07:14:00.387Z,1017.44
2017-04-30T07:15:09.343Z,1017.47
2017-04-30T07:16:18.293Z,1017.5
2017-04-30T07:17:27.246Z,1017.46
2017-04-30T07:18:36.453Z,1017.46
2017-04-30T07:19:45.444Z,1017.43
2017-04-30T07:20:54.393Z,1017.44
2017-04-30T07:22:03.350Z,1017.49
2017-04-30T07:23:12.310Z,1017.39
2017-04-30T07:24:21.630Z,1017.44
2017-04-30T07:25:30.913Z,1017.51
2017-04-30T07:26:39.869Z,1017.53
2017-04-30T07:27:48.819Z,1017.5
2017-04-30T07:28:57.773Z,1017.51
2017-04-30T07:30:06.972Z,1017.52
2017-04-30T07:31:15.925Z,1017.52
2017-04-30T07:32:24.880Z,1017.59
2017-04-30T07:33:33.924Z,1017.74
2017-04-30T07:34:43.211Z,1017.73
2017-04-30T07:35:52.415Z,1017.7
2017-04-30T07:37:01.362Z,1017.58
2017-04-30T07:38:10.328Z,1017.52
2017-04-30T07:39:19.286Z,1017.46
2017-04-30T07:40:28.236Z,1017.51
2017-04-30T07:41:37.435Z,1017.49
2017-04-30T07:42:46.384Z,1017.5
2017-04-30T07:43:55.675Z,1017.5
2017-04-30T07:45:04.631Z,1017.53
2017-04-30T07:46:13.583Z,1017.42
2017-04-30T07:47:22.871Z,1017.52
2017-04-30T07:48:31.821Z,1017.52
2017-04-30T07:49:40.775Z,1017.47
2017-04-30T07:50:49.724Z,1017.4
2017-04-30T07:51:58.680Z,1017.42
2017-04-30T07:53:07.884Z,1017.41
2017-04-30T07:54:16.842Z,1017.39
2017-04-30T07:55:25.887Z,1017.42
2017-04-30T07:56:34.849Z,1017.42
2017-04-30T07:57:43.807Z,1017.41
2017-04-30T07:58:53.069Z,1017.41
2017-04-30T08:00:02.112Z,1017.42
2017-04-30T08:01:11.064Z,1017.47
2017-04-30T08:02:20.016Z,1017.39
2017-04-30T08:03:28.974Z,1017.45
2017-04-30T08:04:38.234Z,1017.43
2017-04-30T08:05:47.203Z,1017.44
2017-04-30T08:06:56.161Z,1017.49
2017-04-30T08:08:05.111Z,1017.58
2017-04-30T08:09:14.170Z,1017.45
2017-04-30T08:10:23.394Z,1017.53
2017-04-30T08:11:32.349Z,1017.47
2017-04-30T08:12:41.305Z,1017.53
2017-04-30T08:13:50.263Z,1017.48
2017-04-30T08:14:59.218Z,1017.43
2017-04-30T08:16:08.419Z,1017.51
2017-04-30T08:17:17.462Z,1017.45
2017-04-30T08:18:26.413Z,1017.53
2017-04-30T08:19:35.406Z,1017.47
2017-04-30T08:20:44.362Z,1017.51
2017-04-30T08:21:53.573Z,1017.53
2017-04-30T08:23:02.613Z,1017.53
2017-04-30T08:24:11.572Z,1017.56
2017-04-30T08:25:20.556Z,1017.54
2017-04-30T08:26:29.512Z,1017.61
2017-04-30T08:27:38.854Z,1017.53
2017-04-30T08:28:47.810Z,1017.59
2017-04-30T08:29:56.766Z,1017.55
2017-04-30T08:31:05.749Z,1017.63
2017-04-30T08:32:15.026Z,1017.52
2017-04-30T08:33:24.239Z,1017.5
2017-04-30T08:34:33.291Z,1017.5
2017-04-30T08:35:42.258Z,1017.46
2017-04-30T08:36:51.216Z,1017.54
2017-04-30T08:38:00.172Z,1017.46
2017-04-30T08:39:09.551Z,1017.45
2017-04-30T08:40:18.513Z,1017.48
2017-04-30T08:41:27.467Z,1017.52
2017-04-30T08:42:36.419Z,1017.43
2017-04-30T08:43:45.375Z,1017.43
2017-04-30T08:44:54.585Z,1017.41
2017-04-30T08:46:03.536Z,1017.41
2017-04-30T08:47:12.579Z,1017.43
2017-04-30T08:48:21.538Z,1017.27
2017-04-30T08:49:30.493Z,1017.37
2017-04-30T08:50:39.709Z,1017.44
2017-04-30T08:51:48.990Z,1017.38
2017-04-30T08:52:57.944Z,1017.34
2017-04-30T08:54:06.902Z,1017.3
2017-04-30T08:55:15.864Z,1017.3
2017-04-30T08:56:25.066Z,1017.23
2017-04-30T08:57:34.023Z,1017.35
2017-04-30T08:58:42.983Z,1017.29
2017-04-30T08:59:51.932Z,1017.25
2017-04-30T09:01:00.897Z,1017.3
2017-04-30T09:02:10.099Z,1017.24
2017-04-30T09:03:19.060Z,1017.26
2017-04-30T09:04:28.010Z,1017.28
2017-04-30T09:05:37.052Z,1017.25
2017-04-30T09:06:46.091Z,1017.23
2017-04-30T09:07:55.436Z,1017.2
2017-04-30T09:09:04.396Z,1017.24
2017-04-30T09:10:13.352Z,1017.21
2017-04-30T09:11:22.310Z,1017.23
2017-04-30T09:12:31.304Z,1017.27
2017-04-30T09:13:40.598Z,1017.27
2017-04-30T09:14:49.559Z,1017.25
2017-04-30T09:15:58.513Z,1017.16
2017-04-30T09:17:07.471Z,1017.15
2017-04-30T09:18:16.432Z,1017.19
2017-04-30T09:19:25.958Z,1017.14
2017-04-30T09:20:35.335Z,1017.12
2017-04-30T09:21:44.292Z,1017.13
2017-04-30T09:22:53.245Z,1017.16
2017-04-30T09:24:02.282Z,1017.16
2017-04-30T09:25:11.548Z,1017.19
2017-04-30T09:26:20.505Z,1017.18
2017-04-30T09:27:29.461Z,1017.15
2017-04-30T09:28:38.415Z,1017.07
2017-04-30T09:29:47.368Z,1017.12
2017-04-30T09:30:56.583Z,1017.05
2017-04-30T09:32:05.536Z,1017.07
2017-04-30T09:33:14.492Z,1017.13
2017-04-30T09:34:23.543Z,1017.16
2017-04-30T09:35:32.599Z,1017.13
2017-04-30T09:36:41.805Z,1017.13
2017-04-30T09:37:50.760Z,1017.15
2017-04-30T09:38:59.716Z,1017.08
2017-04-30T09:40:08.673Z,1017.07
2017-04-30T09:41:17.629Z,1017.06
2017-04-30T09:42:26.970Z,1017.04
2017-04-30T09:43:35.926Z,1017
2017-04-30T09:44:44.889Z,1017.09
2017-04-30T09:45:53.842Z,1017.01
2017-04-30T09:47:02.795Z,1016.98
2017-04-30T09:48:12.054Z,1016.96
2017-04-30T09:49:21.339Z,1016.95
2017-04-30T09:50:30.623Z,1016.87
2017-04-30T09:51:39.580Z,1016.9
2017-04-30T09:52:48.866Z,1016.95
2017-04-30T09:53:58.072Z,1016.93
2017-04-30T09:55:07.122Z,1016.94
2017-04-30T09:56:16.162Z,1016.89
2017-04-30T09:57:25.115Z,1016.94
2017-04-30T09:58:34.066Z,1016.97
2017-04-30T09:59:43.280Z,1016.96
2017-04-30T10:00:52.240Z,1016.93
2017-04-30T10:02:01.195Z,1016.92
2017-04-30T10:03:10.239Z,1016.75
2017-04-30T10:04:19.197Z,1016.79
2017-04-30T10:05:28.458Z,1016.94
2017-04-30T10:06:37.410Z,1016.86
2017-04-30T10:07:46.451Z,1016.77
2017-04-30T10:08:55.439Z,1016.8
2017-04-30T10:10:04.405Z,1016.81
2017-04-30T10:11:13.937Z,1016.78
2017-04-30T10:12:22.891Z,1016.75
2017-04-30T10:13:31.844Z,1016.73
2017-04-30T10:14:40.796Z,1016.71
2017-04-30T10:15:49.756Z,1016.72
2017-04-30T10:16:58.962Z,1016.71
2017-04-30T10:18:07.931Z,1016.65
2017-04-30T10:19:16.894Z,1016.65
2017-04-30T10:20:25.858Z,1016.66
2017-04-30T10:21:34.812Z,1016.68
2017-04-30T10:22:44.345Z,1016.67
2017-04-30T10:23:53.302Z,1016.51
2017-04-30T10:25:02.253Z,1016.53
2017-04-30T10:26:11.208Z,1016.58
2017-04-30T10:27:20.169Z,1016.58
2017-04-30T10:28:29.374Z,1016.54
2017-04-30T10:29:38.330Z,1016.57
2017-04-30T10:30:47.608Z,1016.59
2017-04-30T10:31:56.566Z,1016.57
2017-04-30T10:33:05.613Z,1016.53
2017-04-30T10:34:14.822Z,1016.48
2017-04-30T10:35:23.784Z,1016.58
2017-04-30T10:36:32.739Z,1016.52
2017-04-30T10:37:41.696Z,1016.47
2017-04-30T10:38:50.651Z,1016.41
2017-04-30T10:39:59.877Z,1016.5
2017-04-30T10:41:08.839Z,1016.45
2017-04-30T10:42:17.793Z,1016.45
2017-04-30T10:43:26.753Z,1016.41
2017-04-30T10:44:35.713Z,1016.48
2017-04-30T10:45:44.976Z,1016.51
2017-04-30T10:46:53.931Z,1016.51
2017-04-30T10:48:02.886Z,1016.46
2017-04-30T10:49:11.842Z,1016.42
2017-04-30T10:50:20.802Z,1016.32
2017-04-30T10:51:30.013Z,1016.4
2017-04-30T10:52:38.973Z,1016.34
2017-04-30T10:53:47.940Z,1016.32
2017-04-30T10:54:56.906Z,1016.39
2017-04-30T10:56:05.860Z,1016.29
2017-04-30T10:57:15.119Z,1016.38
2017-04-30T10:58:24.086Z,1016.17
2017-04-30T10:59:33.046Z,1016.25
2017-04-30T11:00:42.004Z,1016.27
2017-04-30T11:01:50.968Z,1016.3
2017-04-30T11:03:00.543Z,1016.35
2017-04-30T11:04:09.502Z,1016.22
2017-04-30T11:05:18.461Z,1016.31
2017-04-30T11:06:27.415Z,1016.31
2017-04-30T11:07:36.411Z,1016.32
2017-04-30T11:08:45.618Z,1016.3
2017-04-30T11:09:54.574Z,1016.29
2017-04-30T11:11:03.530Z,1016.18
2017-04-30T11:12:12.485Z,1016.32
2017-04-30T11:13:21.446Z,1016.21
2017-04-30T11:14:30.796Z,1016.19
2017-04-30T11:15:39.841Z,1016.08
2017-04-30T11:16:48.801Z,1016.09
2017-04-30T11:17:57.758Z,1016.25
2017-04-30T11:19:06.718Z,1016.19
2017-04-30T11:20:15.975Z,1016.2
2017-04-30T11:21:24.927Z,1016.13
2017-04-30T11:22:33.888Z,1016.09
2017-04-30T11:23:42.927Z,1016.06
2017-04-30T11:24:51.974Z,1016.06
2017-04-30T11:26:01.185Z,1016.06
2017-04-30T11:27:10.225Z,1016.01
2017-04-30T11:28:19.188Z,1016.05
2017-04-30T11:29:28.142Z,1016.02
2017-04-30T11:30:37.098Z,1016.05
2017-04-30T11:31:46.354Z,1016.08
2017-04-30T11:32:55.305Z,1016.1
2017-04-30T11:34:04.349Z,1016.06
2017-04-30T11:35:13.306Z,1016.01
2017-04-30T11:36:22.253Z,1016.1
2017-04-30T11:37:31.511Z,1016.09
2017-04-30T11:38:40.463Z,1016.13
2017-04-30T11:39:49.420Z,1015.99
2017-04-30T11:40:58.382Z,1015.94
2017-04-30T11:42:07.336Z,1015.96
2017-04-30T11:43:16.633Z,1016.06
2017-04-30T11:44:25.593Z,1015.99
2017-04-30T11:45:34.884Z,1016.04
2017-04-30T11:46:43.964Z,1015.96
2017-04-30T11:47:52.920Z,1015.9
2017-04-30T11:49:02.184Z,1015.96
2017-04-30T11:50:11.188Z,1015.96
2017-04-30T11:51:20.151Z,1015.93
2017-04-30T11:52:29.196Z,1015.94
2017-04-30T11:53:38.248Z,1015.93
2017-04-30T11:54:47.462Z,1015.9
2017-04-30T11:55:56.432Z,1015.9
2017-04-30T11:57:05.394Z,1015.79
2017-04-30T11:58:14.347Z,1015.71
2017-04-30T11:59:23.299Z,1015.73
2017-04-30T12:00:32.518Z,1015.81
2017-04-30T12:01:41.469Z,1015.91
2017-04-30T12:02:50.433Z,1015.81
2017-04-30T12:03:59.389Z,1015.79
2017-04-30T12:05:08.351Z,1015.8
2017-04-30T12:06:17.563Z,1015.7
2017-04-30T12:07:26.845Z,1015.64
2017-04-30T12:08:35.806Z,1015.62
2017-04-30T12:09:44.759Z,1015.54
2017-04-30T12:10:53.714Z,1015.69
2017-04-30T12:12:02.969Z,1015.57
2017-04-30T12:13:11.937Z,1015.58
2017-04-30T12:14:20.898Z,1015.6
2017-04-30T12:15:29.856Z,1015.58
2017-04-30T12:16:38.809Z,1015.52
2017-04-30T12:17:48.020Z,1015.47
2017-04-30T12:18:56.985Z,1015.45
2017-04-30T12:20:05.949Z,1015.51
2017-04-30T12:21:14.907Z,1015.43
2017-04-30T12:22:23.861Z,1015.37
2017-04-30T12:23:33.063Z,1015.41
2017-04-30T12:24:42.026Z,1015.35
2017-04-30T12:25:51.077Z,1015.38
2017-04-30T12:27:00.034Z,1015.38
2017-04-30T12:28:08.992Z,1015.35
2017-04-30T12:29:18.269Z,1015.37
2017-04-30T12:30:27.313Z,1015.4
2017-04-30T12:31:36.266Z,1015.29
2017-04-30T12:32:45.227Z,1015.27
2017-04-30T12:33:54.276Z,1015.24
2017-04-30T12:35:03.490Z,1015.24
2017-04-30T12:36:12.446Z,1015.21
2017-04-30T12:37:21.727Z,1015.17
2017-04-30T12:38:30.686Z,1015.19
2017-04-30T12:39:39.646Z,1015.18
2017-04-30T12:40:49.231Z,1015.27
2017-04-30T12:41:58.511Z,1015.08
2017-04-30T12:43:07.554Z,1015.23
2017-04-30T12:44:16.512Z,1015.23
2017-04-30T12:45:25.474Z,1015.07
2017-04-30T12:46:34.682Z,1015.08
2017-04-30T12:47:43.639Z,1015.08
2017-04-30T12:48:52.600Z,1015.09
2017-04-30T12:50:01.890Z,1015.02
2017-04-30T12:51:10.934Z,1015.03
2017-04-30T12:52:20.146Z,1015
2017-04-30T12:53:29.110Z,1015.1
2017-04-30T12:54:38.068Z,1015.11
2017-04-30T12:55:47.022Z,1015.04
2017-04-30T12:56:56.018Z,1015.01
2017-04-30T12:58:05.230Z,1015.03
2017-04-30T12:59:14.189Z,1014.91
2017-04-30T13:00:23.148Z,1015.04
2017-04-30T13:01:32.106Z,1014.99
2017-04-30T13:02:41.064Z,1014.95
2017-04-30T13:03:50.285Z,1014.85
2017-04-30T13:04:59.250Z,1014.88
2017-04-30T13:06:08.858Z,1014.89
2017-04-30T13:07:17.818Z,1014.88
2017-04-30T13:08:26.777Z,1014.8
2017-04-30T13:09:36.049Z,1014.77
2017-04-30T13:10:45.006Z,1014.73
2017-04-30T13:11:53.964Z,1014.69
2017-04-30T13:13:02.926Z,1014.74
2017-04-30T13:14:11.973Z,1014.8
2017-04-30T13:15:21.237Z,1014.76
2017-04-30T13:16:30.200Z,1014.72
2017-04-30T13:17:39.156Z,1014.71
2017-04-30T13:18:48.121Z,1014.66
2017-04-30T13:19:57.079Z,1014.58
2017-04-30T13:21:06.290Z,1014.56
2017-04-30T13:22:15.329Z,1014.62
2017-04-30T13:23:24.287Z,1014.54
2017-04-30T13:24:33.251Z,1014.51
2017-04-30T13:25:42.207Z,1014.45
2017-04-30T13:26:51.417Z,1014.49
2017-04-30T13:28:00.375Z,1014.47
2017-04-30T13:29:09.333Z,1014.48
2017-04-30T13:30:18.302Z,1014.46
2017-04-30T13:31:27.255Z,1014.44
2017-04-30T13:32:36.461Z,1014.28
2017-04-30T13:33:45.424Z,1014.34
2017-04-30T13:34:54.397Z,1014.46
2017-04-30T13:36:03.359Z,1014.41
2017-04-30T13:37:12.320Z,1014.32
2017-04-30T13:38:21.533Z,1014.57
2017-04-30T13:39:30.494Z,1014.38
2017-04-30T13:40:39.449Z,1014.41
2017-04-30T13:41:48.407Z,1014.45
2017-04-30T13:42:57.449Z,1014.38
2017-04-30T13:44:06.658Z,1014.42
2017-04-30T13:45:15.615Z,1014.39
2017-04-30T13:46:24.747Z,1014.44
2017-04-30T13:47:33.700Z,1014.43
2017-04-30T13:48:42.659Z,1014.41
2017-04-30T13:49:51.929Z,1014.36
2017-04-30T13:51:00.891Z,1014.39
2017-04-30T13:52:09.846Z,1014.52
2017-04-30T13:53:18.806Z,1014.37
2017-04-30T13:54:27.771Z,1014.52
2017-04-30T13:55:36.980Z,1014.43
2017-04-30T13:56:45.931Z,1014.48